Yatesville, Georgia
Current Conditions -  °F | °C
As of 2:35 PM on Thursday 18 Dec 2014 (Local Time) from KOPN Reporting Station
Overcast Overcast  
Wind Chill: 64°   Ceiling: 11000
Heat Index: 64°   Visibility: 10mi
Dew Point: 28°   Wind: 6mph
Humidity: 26%   Direction: 290°WNW
Pressure: 30.1"   Gusts: NA
Location:  32.91°N, 84.14°W
Report Text: KOPN 181935Z AUTO 29005KT 10SM SCT055 OVC110 18/M02 A3010 RMK AO2
Loading
Personal Weather Stations






























Interactive Weather Map New forecast layout! Learn more

10-Day Weather Forecast

Advertisements
Track Severe Weather on mobile